createdAt,value
2022-10-21T00:00:41.919Z,8.77
2022-10-21T00:01:42.200Z,8.75
2022-10-21T00:02:42.506Z,8.74
2022-10-21T00:03:42.787Z,8.72
2022-10-21T00:04:43.091Z,8.75
2022-10-21T00:05:43.391Z,8.77
2022-10-21T00:06:43.677Z,8.74
2022-10-21T00:07:43.963Z,8.74
2022-10-21T00:08:44.306Z,8.75
2022-10-21T00:09:44.594Z,8.74
2022-10-21T00:10:51.938Z,8.74
2022-10-21T00:11:45.171Z,8.75
2022-10-21T00:12:45.463Z,8.75
2022-10-21T00:13:45.762Z,8.75
2022-10-21T00:14:46.063Z,8.72
2022-10-21T00:15:46.381Z,8.74
2022-10-21T00:16:46.674Z,8.75
2022-10-21T00:17:46.971Z,8.75
2022-10-21T00:18:47.270Z,8.78
2022-10-21T00:19:47.557Z,8.78
2022-10-21T00:20:48.731Z,8.77
2022-10-21T00:21:48.139Z,8.77
2022-10-21T00:22:48.438Z,8.79
2022-10-21T00:23:48.718Z,8.79
2022-10-21T00:24:49.005Z,8.78
2022-10-21T00:25:49.351Z,8.79
2022-10-21T00:26:49.648Z,8.82
2022-10-21T00:27:49.929Z,8.86
2022-10-21T00:28:50.224Z,8.86
2022-10-21T00:29:50.507Z,8.84
2022-10-21T00:30:50.816Z,8.86
2022-10-21T00:31:51.513Z,8.87
2022-10-21T00:32:51.407Z,8.86
2022-10-21T00:33:51.685Z,8.86
2022-10-21T00:34:52.875Z,8.87
2022-10-21T00:35:52.267Z,8.86
2022-10-21T00:36:52.560Z,8.87
2022-10-21T00:37:52.854Z,8.89
2022-10-21T00:38:53.139Z,8.89
2022-10-21T00:39:53.441Z,8.89
2022-10-21T00:40:53.743Z,8.92
2022-10-21T00:41:54.015Z,8.93
2022-10-21T00:42:54.313Z,8.95
2022-10-21T00:43:54.602Z,8.92
2022-10-21T00:44:54.911Z,8.93
2022-10-21T00:45:55.770Z,8.95
2022-10-21T00:46:55.482Z,8.93
2022-10-21T00:47:55.768Z,8.92
2022-10-21T00:48:56.052Z,8.93
2022-10-21T00:49:56.342Z,8.93
2022-10-21T00:50:56.642Z,8.95
2022-10-21T00:51:56.932Z,8.96
2022-10-21T00:52:57.237Z,8.97
2022-10-21T00:53:57.530Z,8.99
2022-10-21T00:54:57.813Z,8.99
2022-10-21T00:55:58.146Z,8.96
2022-10-21T00:56:58.445Z,8.96
2022-10-21T00:57:58.723Z,8.97
2022-10-21T00:58:59.015Z,8.97
2022-10-21T00:59:59.293Z,8.99
2022-10-21T01:00:59.672Z,9.00
2022-10-21T01:01:59.847Z,8.99
2022-10-21T01:03:00.130Z,9.00
2022-10-21T01:04:00.409Z,8.99
2022-10-21T01:05:00.696Z,8.99
2022-10-21T01:06:00.989Z,8.99
2022-10-21T01:07:01.279Z,9.00
2022-10-21T01:08:01.623Z,8.99
2022-10-21T01:09:01.971Z,9.00
2022-10-21T01:10:03.034Z,9.00
2022-10-21T01:11:02.555Z,8.97
2022-10-21T01:12:02.837Z,8.99
2022-10-21T01:13:03.116Z,8.99
2022-10-21T01:14:03.390Z,8.96
2022-10-21T01:16:04.040Z,8.95
2022-10-21T01:17:11.587Z,8.95
2022-10-21T01:18:05.674Z,8.93
2022-10-21T01:19:04.955Z,8.93
2022-10-21T01:20:05.237Z,8.95
2022-10-21T01:21:05.534Z,8.92
2022-10-21T01:22:05.820Z,8.92
2022-10-21T01:23:06.110Z,8.90
2022-10-21T01:25:06.725Z,8.92
2022-10-21T01:26:07.027Z,8.90
2022-10-21T01:27:07.314Z,8.92
2022-10-21T01:28:07.604Z,8.93
2022-10-21T01:29:07.869Z,8.90
2022-10-21T01:30:08.174Z,8.90
2022-10-21T01:31:08.546Z,8.95
2022-10-21T01:32:08.862Z,8.92
2022-10-21T01:34:09.494Z,8.95
2022-10-21T01:35:09.781Z,8.93
2022-10-21T01:36:10.067Z,8.95
2022-10-21T01:37:10.370Z,8.95
2022-10-21T01:38:10.681Z,8.96
2022-10-21T01:39:10.962Z,8.96
2022-10-21T01:40:11.246Z,8.96
2022-10-21T01:41:11.562Z,8.96
2022-10-21T01:42:11.902Z,8.96
2022-10-21T01:43:12.180Z,8.95
2022-10-21T01:44:12.458Z,8.96
2022-10-21T01:45:12.749Z,8.95
2022-10-21T01:46:13.042Z,8.96
2022-10-21T01:47:13.327Z,8.95
2022-10-21T01:48:13.608Z,8.99
2022-10-21T01:49:13.887Z,8.97
2022-10-21T01:50:14.169Z,8.99
2022-10-21T01:51:14.569Z,8.99
2022-10-21T01:52:14.706Z,9.00
2022-10-21T01:53:14.989Z,9.02
2022-10-21T01:54:15.268Z,9.05
2022-10-21T01:55:15.550Z,9.08
2022-10-21T01:56:15.861Z,9.08
2022-10-21T01:57:16.155Z,9.09
2022-10-21T01:58:16.428Z,9.16
2022-10-21T01:59:16.716Z,9.15
2022-10-21T02:00:17.063Z,9.15
2022-10-21T02:01:17.322Z,9.16
2022-10-21T02:02:17.484Z,9.18
2022-10-21T02:03:17.775Z,9.18
2022-10-21T02:04:18.066Z,9.16
2022-10-21T02:05:18.353Z,9.12
2022-10-21T02:06:18.643Z,9.09
2022-10-21T02:07:18.929Z,9.12
2022-10-21T02:08:19.234Z,9.15
2022-10-21T02:09:19.541Z,9.18
2022-10-21T02:10:19.823Z,9.19
2022-10-21T02:11:20.123Z,9.24
2022-10-21T02:12:20.403Z,9.26
2022-10-21T02:13:20.690Z,9.24
2022-10-21T02:14:20.977Z,9.24
2022-10-21T02:15:21.266Z,9.26
2022-10-21T02:16:21.571Z,9.24
2022-10-21T02:17:21.852Z,9.19
2022-10-21T02:18:22.126Z,9.24
2022-10-21T02:19:22.448Z,9.26
2022-10-21T02:20:22.728Z,9.27
2022-10-21T02:21:23.025Z,9.26
2022-10-21T02:22:23.319Z,9.26
2022-10-21T02:23:23.594Z,9.26
2022-10-21T02:24:23.890Z,9.29
2022-10-21T02:25:24.165Z,9.26
2022-10-21T02:26:24.463Z,9.24
2022-10-21T02:27:24.745Z,9.27
2022-10-21T02:28:25.030Z,9.26
2022-10-21T02:29:25.318Z,9.27
2022-10-21T02:30:25.599Z,9.27
2022-10-21T02:31:25.898Z,9.30
2022-10-21T02:32:26.188Z,9.30
2022-10-21T02:33:26.456Z,9.31
2022-10-21T02:34:26.754Z,9.33
2022-10-21T02:35:27.028Z,9.34
2022-10-21T02:36:27.338Z,9.37
2022-10-21T02:37:27.642Z,9.40
2022-10-21T02:38:27.925Z,9.42
2022-10-21T02:39:28.200Z,9.40
2022-10-21T02:40:28.510Z,9.37
2022-10-21T02:41:28.824Z,9.37
2022-10-21T02:42:29.115Z,9.39
2022-10-21T02:43:29.397Z,9.36
2022-10-21T02:44:29.683Z,9.36
2022-10-21T02:45:29.966Z,9.36
2022-10-21T02:46:30.262Z,9.34
2022-10-21T02:47:30.544Z,9.34
2022-10-21T02:48:30.830Z,9.36
2022-10-21T02:49:31.119Z,9.34
2022-10-21T02:50:31.402Z,9.39
2022-10-21T02:51:31.684Z,9.44
2022-10-21T02:52:31.964Z,9.45
2022-10-21T02:53:32.253Z,9.48
2022-10-21T02:54:32.553Z,9.47
2022-10-21T02:55:32.841Z,9.47
2022-10-21T02:56:33.147Z,9.44
2022-10-21T02:57:33.432Z,9.47
2022-10-21T02:58:33.715Z,9.45
2022-10-21T02:59:33.997Z,9.48
2022-10-21T03:00:34.274Z,9.52
2022-10-21T03:01:34.568Z,9.48
2022-10-21T03:02:34.849Z,9.49
2022-10-21T03:03:35.124Z,9.49
2022-10-21T03:04:35.420Z,9.47
2022-10-21T03:05:35.709Z,9.47
2022-10-21T03:06:36.001Z,9.44
2022-10-21T03:07:36.654Z,9.44
2022-10-21T03:08:36.596Z,9.48
2022-10-21T03:09:36.857Z,9.48
2022-10-21T03:10:37.150Z,9.49
2022-10-21T03:11:37.452Z,9.48
2022-10-21T03:12:37.735Z,9.48
2022-10-21T03:13:38.008Z,9.47
2022-10-21T03:14:38.298Z,9.45
2022-10-21T03:15:38.579Z,9.47
2022-10-21T03:16:38.874Z,9.47
2022-10-21T03:17:39.360Z,9.51
2022-10-21T03:18:39.407Z,9.52
2022-10-21T03:19:39.687Z,9.49
2022-10-21T03:20:39.987Z,9.51
2022-10-21T03:21:40.290Z,9.54
2022-10-21T03:22:40.572Z,9.56
2022-10-21T03:23:40.852Z,9.55
2022-10-21T03:24:41.130Z,9.55
2022-10-21T03:25:41.427Z,9.54
2022-10-21T03:26:41.721Z,9.54
2022-10-21T03:27:42.018Z,9.52
2022-10-21T03:28:42.296Z,9.54
2022-10-21T03:29:42.576Z,9.55
2022-10-21T03:30:42.880Z,9.54
2022-10-21T03:31:43.179Z,9.54
2022-10-21T03:32:43.482Z,9.56
2022-10-21T03:33:43.782Z,9.55
2022-10-21T03:34:44.083Z,9.56
2022-10-21T03:35:44.360Z,9.56
2022-10-21T03:36:44.675Z,9.56
2022-10-21T03:37:44.975Z,9.55
2022-10-21T03:38:45.224Z,9.56
2022-10-21T03:39:45.508Z,9.59
2022-10-21T03:40:45.786Z,9.59
2022-10-21T03:41:46.088Z,9.59
2022-10-21T03:42:46.370Z,9.59
2022-10-21T03:43:46.647Z,9.62
2022-10-21T03:44:46.930Z,9.62
2022-10-21T03:45:47.214Z,9.63
2022-10-21T03:46:47.528Z,9.62
2022-10-21T03:47:47.801Z,9.62
2022-10-21T03:48:48.091Z,9.64
2022-10-21T03:49:48.396Z,9.66
2022-10-21T03:50:48.685Z,9.64
2022-10-21T03:51:48.978Z,9.63
2022-10-21T03:52:49.266Z,9.63
2022-10-21T03:53:49.549Z,9.66
2022-10-21T03:54:49.839Z,9.62
2022-10-21T03:55:53.044Z,9.62
2022-10-21T03:56:51.399Z,9.59
2022-10-21T03:57:50.668Z,9.62
2022-10-21T03:58:53.028Z,9.62
2022-10-21T03:59:52.297Z,9.59
2022-10-21T04:00:51.578Z,9.59
2022-10-21T04:01:51.936Z,9.59
2022-10-21T04:02:52.154Z,9.58
2022-10-21T04:03:52.455Z,9.58
2022-10-21T04:04:52.777Z,9.59
2022-10-21T04:05:53.071Z,9.59
2022-10-21T04:06:53.397Z,9.62
2022-10-21T04:07:53.700Z,9.59
2022-10-21T04:08:54.045Z,9.59
2022-10-21T04:09:54.325Z,9.59
2022-10-21T04:11:54.921Z,9.63
2022-10-21T04:12:55.198Z,9.63
2022-10-21T04:13:55.635Z,9.64
2022-10-21T04:14:55.805Z,9.63
2022-10-21T04:15:56.109Z,9.62
2022-10-21T04:17:06.593Z,9.62
2022-10-21T04:17:57.641Z,9.59
2022-10-21T04:18:56.918Z,9.63
2022-10-21T04:19:57.204Z,9.63
2022-10-21T04:20:57.498Z,9.59
2022-10-21T04:21:57.788Z,9.59
2022-10-21T04:22:58.066Z,9.62
2022-10-21T04:23:58.350Z,9.63
2022-10-21T04:25:00.913Z,9.63
2022-10-21T04:25:59.880Z,9.64
2022-10-21T04:26:59.188Z,9.67
2022-10-21T04:27:59.460Z,9.67
2022-10-21T04:28:59.731Z,9.66
2022-10-21T04:30:00.012Z,9.69
2022-10-21T04:31:00.300Z,9.67
2022-10-21T04:32:00.611Z,9.67
2022-10-21T04:33:00.881Z,9.66
2022-10-21T04:34:01.160Z,9.67
2022-10-21T04:35:01.464Z,9.69
2022-10-21T04:36:01.767Z,9.67
2022-10-21T04:37:04.966Z,9.67
2022-10-21T04:38:02.369Z,9.66
2022-10-21T04:39:02.654Z,9.64
2022-10-21T04:40:02.939Z,9.66
2022-10-21T04:41:03.228Z,9.70
2022-10-21T04:42:03.519Z,9.69
2022-10-21T04:43:03.809Z,9.70
2022-10-21T04:44:04.088Z,9.69
2022-10-21T04:45:04.367Z,9.69
2022-10-21T04:46:07.540Z,9.69
2022-10-21T04:47:06.007Z,9.69
2022-10-21T04:48:05.278Z,9.67
2022-10-21T04:49:05.555Z,9.67
2022-10-21T04:50:05.856Z,9.69
2022-10-21T04:51:06.154Z,9.67
2022-10-21T04:52:06.456Z,9.70
2022-10-21T04:53:06.744Z,9.69
2022-10-21T04:54:07.027Z,9.69
2022-10-21T04:55:07.335Z,9.69
2022-10-21T04:56:07.621Z,9.72
2022-10-21T04:57:07.924Z,9.72
2022-10-21T04:58:08.200Z,9.70
2022-10-21T04:59:08.478Z,9.73
2022-10-21T05:00:08.775Z,9.72
2022-10-21T05:01:09.167Z,9.73
2022-10-21T05:02:09.344Z,9.76
2022-10-21T05:03:09.653Z,9.76
2022-10-21T05:04:09.934Z,9.76
2022-10-21T05:05:10.226Z,9.76
2022-10-21T05:06:10.534Z,9.76
2022-10-21T05:07:10.793Z,9.76
2022-10-21T05:08:11.759Z,9.76
2022-10-21T05:09:11.406Z,9.76
2022-10-21T05:10:11.616Z,9.77
2022-10-21T05:11:11.951Z,9.77
2022-10-21T05:12:12.321Z,9.77
2022-10-21T05:13:12.571Z,9.81
2022-10-21T05:14:12.844Z,9.82
2022-10-21T05:15:13.102Z,9.81
2022-10-21T05:16:13.349Z,9.81
2022-10-21T05:17:13.609Z,9.82
2022-10-21T05:18:13.860Z,9.82
2022-10-21T05:19:14.099Z,9.84
2022-10-21T05:20:14.348Z,9.85
2022-10-21T05:21:14.605Z,9.84
2022-10-21T05:22:14.870Z,9.85
2022-10-21T05:23:15.110Z,9.84
2022-10-21T05:24:15.360Z,9.85
2022-10-21T05:25:15.614Z,9.87
2022-10-21T05:26:15.890Z,9.88
2022-10-21T05:27:16.124Z,9.88
2022-10-21T05:28:16.409Z,9.91
2022-10-21T05:29:16.678Z,9.91
2022-10-21T05:30:16.992Z,9.91
2022-10-21T05:31:17.273Z,9.92
2022-10-21T05:32:17.570Z,9.92
2022-10-21T05:33:17.867Z,9.95
2022-10-21T05:34:18.263Z,9.95
2022-10-21T05:35:18.459Z,9.99
2022-10-21T05:36:20.588Z,9.97
2022-10-21T05:37:19.075Z,9.97
2022-10-21T05:38:19.344Z,9.99
2022-10-21T05:39:19.626Z,10.00
2022-10-21T05:40:19.915Z,10.03
2022-10-21T05:41:20.193Z,10.02
2022-10-21T05:42:20.503Z,10.02
2022-10-21T05:43:20.764Z,10.02
2022-10-21T05:44:21.044Z,10.03
2022-10-21T05:45:21.325Z,10.03
2022-10-21T05:46:21.595Z,10.03
2022-10-21T05:47:21.894Z,10.07
2022-10-21T05:48:22.187Z,10.06
2022-10-21T05:49:22.447Z,10.07
2022-10-21T05:50:22.737Z,10.09
2022-10-21T05:51:23.014Z,10.09
2022-10-21T05:52:23.313Z,10.10
2022-10-21T05:53:23.596Z,10.10
2022-10-21T05:54:23.874Z,10.09
2022-10-21T05:55:24.171Z,10.12
2022-10-21T05:56:24.474Z,10.12
2022-10-21T05:57:24.787Z,10.13
2022-10-21T05:58:25.058Z,10.13
2022-10-21T05:59:25.332Z,10.13
2022-10-21T06:00:25.608Z,10.13
2022-10-21T06:01:25.932Z,10.13
2022-10-21T06:02:26.194Z,10.15
2022-10-21T06:03:26.509Z,10.15
2022-10-21T06:04:26.799Z,10.18
2022-10-21T06:05:27.100Z,10.18
2022-10-21T06:06:27.381Z,10.18
2022-10-21T06:07:27.690Z,10.18
2022-10-21T06:08:28.061Z,10.18
2022-10-21T06:09:28.229Z,10.20
2022-10-21T06:10:29.256Z,10.21
2022-10-21T06:11:28.815Z,10.20
2022-10-21T06:12:29.105Z,10.21
2022-10-21T06:13:29.397Z,10.23
2022-10-21T06:14:29.682Z,10.21
2022-10-21T06:15:29.961Z,10.23
2022-10-21T06:16:30.258Z,10.24
2022-10-21T06:17:30.574Z,10.23
2022-10-21T06:18:30.846Z,10.21
2022-10-21T06:19:31.124Z,10.23
2022-10-21T06:20:31.424Z,10.21
2022-10-21T06:21:31.712Z,10.20
2022-10-21T06:22:32.006Z,10.18
2022-10-21T06:23:32.291Z,10.18
2022-10-21T06:24:32.578Z,10.20
2022-10-21T06:25:32.847Z,10.20
2022-10-21T06:26:36.102Z,10.17
2022-10-21T06:27:33.373Z,10.13
2022-10-21T06:28:33.642Z,10.13
2022-10-21T06:29:33.938Z,10.10
2022-10-21T06:30:34.213Z,10.10
2022-10-21T06:31:34.501Z,10.10
2022-10-21T06:32:34.798Z,10.12
2022-10-21T06:33:35.063Z,10.09
2022-10-21T06:34:35.359Z,10.12
2022-10-21T06:35:35.624Z,10.10
2022-10-21T06:36:35.901Z,10.10
2022-10-21T06:37:36.531Z,10.12
2022-10-21T06:38:36.494Z,10.10
2022-10-21T06:39:36.779Z,10.13
2022-10-21T06:40:37.051Z,10.15
2022-10-21T06:41:37.326Z,10.13
2022-10-21T06:42:37.613Z,10.15
2022-10-21T06:43:37.909Z,10.10
2022-10-21T06:44:38.188Z,10.12
2022-10-21T06:45:38.460Z,10.12
2022-10-21T06:46:38.751Z,10.12
2022-10-21T06:47:39.190Z,10.10
2022-10-21T06:48:39.290Z,10.09
2022-10-21T06:49:39.575Z,10.09
2022-10-21T06:50:39.847Z,10.10
2022-10-21T06:51:40.120Z,10.12
2022-10-21T06:52:40.415Z,10.15
2022-10-21T06:53:40.685Z,10.17
2022-10-21T06:54:40.957Z,10.17
2022-10-21T06:55:41.241Z,10.15
2022-10-21T06:56:41.514Z,10.17
2022-10-21T06:57:41.754Z,10.15
2022-10-21T06:58:42.031Z,10.15
2022-10-21T06:59:42.308Z,10.17
2022-10-21T07:00:42.585Z,10.18
2022-10-21T07:01:59.085Z,10.21
2022-10-21T07:02:44.102Z,10.20
2022-10-21T07:03:43.373Z,10.23
2022-10-21T07:04:43.642Z,10.24
2022-10-21T07:05:43.927Z,10.25
2022-10-21T07:06:44.248Z,10.27
2022-10-21T07:07:45.006Z,10.28
2022-10-21T07:08:53.912Z,10.28
2022-10-21T07:09:46.148Z,10.28
2022-10-21T07:10:45.346Z,10.31
2022-10-21T07:11:45.635Z,10.33
2022-10-21T07:12:45.928Z,10.31
2022-10-21T07:13:46.216Z,10.33
2022-10-21T07:14:46.495Z,10.36
2022-10-21T07:15:46.794Z,10.36
2022-10-21T07:16:47.073Z,10.36
2022-10-21T07:17:47.386Z,10.39
2022-10-21T07:18:47.661Z,10.42
2022-10-21T07:19:47.938Z,10.43
2022-10-21T07:20:48.216Z,10.45
2022-10-21T07:21:48.492Z,10.46
2022-10-21T07:22:48.792Z,10.43
2022-10-21T07:23:49.071Z,10.45
2022-10-21T07:24:49.392Z,10.48
2022-10-21T07:25:49.706Z,10.49
2022-10-21T07:26:49.982Z,10.48
2022-10-21T07:27:50.419Z,10.49
2022-10-21T07:28:50.545Z,10.58
2022-10-21T07:29:50.818Z,10.59
2022-10-21T07:30:51.092Z,10.59
2022-10-21T07:31:51.366Z,10.57
2022-10-21T07:32:51.666Z,10.61
2022-10-21T07:33:51.984Z,10.65
2022-10-21T07:34:52.239Z,10.69
2022-10-21T07:35:52.529Z,10.71
2022-10-21T07:36:52.850Z,10.72
2022-10-21T07:37:53.146Z,10.80
2022-10-21T07:38:53.436Z,10.84
2022-10-21T07:39:53.706Z,10.87
2022-10-21T07:40:53.984Z,10.92
2022-10-21T07:41:54.245Z,10.98
2022-10-21T07:42:54.536Z,10.94
2022-10-21T07:43:54.822Z,10.98
2022-10-21T07:44:55.069Z,11.04
2022-10-21T07:45:55.381Z,11.04
2022-10-21T07:46:55.681Z,11.07
2022-10-21T07:47:55.982Z,11.08
2022-10-21T07:48:56.245Z,11.10
2022-10-21T07:49:56.513Z,11.12
2022-10-21T07:50:56.779Z,11.10
2022-10-21T07:51:57.065Z,11.16
2022-10-21T07:53:10.280Z,11.16
2022-10-21T07:53:58.580Z,11.19
2022-10-21T07:54:57.837Z,11.22
2022-10-21T07:55:58.117Z,11.19
2022-10-21T07:56:58.391Z,11.25
2022-10-21T07:57:58.683Z,11.26
2022-10-21T07:58:58.967Z,11.26
2022-10-21T07:59:59.233Z,11.30
2022-10-21T08:00:59.566Z,11.30
2022-10-21T08:01:59.812Z,11.34
2022-10-21T08:03:00.094Z,11.37
2022-10-21T08:04:00.372Z,11.41
2022-10-21T08:05:00.635Z,11.37
2022-10-21T08:06:00.910Z,11.40
2022-10-21T08:07:01.175Z,11.37
2022-10-21T08:08:01.445Z,11.41
2022-10-21T08:09:01.750Z,11.48
2022-10-21T08:10:02.900Z,11.44
2022-10-21T08:11:02.260Z,11.43
2022-10-21T08:12:02.584Z,11.43
2022-10-21T08:13:02.867Z,11.45
2022-10-21T08:14:03.185Z,11.45
2022-10-21T08:15:03.451Z,11.49
2022-10-21T08:16:03.713Z,11.53
2022-10-21T08:17:03.983Z,11.53
2022-10-21T08:18:04.266Z,11.59
2022-10-21T08:19:04.530Z,11.65
2022-10-21T08:20:04.801Z,11.77
2022-10-21T08:21:05.062Z,11.97
2022-10-21T08:22:05.319Z,12.23
2022-10-21T08:23:05.621Z,12.36
2022-10-21T08:24:05.875Z,12.45
2022-10-21T08:25:06.150Z,12.63
2022-10-21T08:26:06.414Z,12.68
2022-10-21T08:27:06.810Z,12.91
2022-10-21T08:28:07.014Z,13.13
2022-10-21T08:29:07.293Z,13.13
2022-10-21T08:30:07.541Z,13.11
2022-10-21T08:31:07.817Z,13.06
2022-10-21T08:32:08.089Z,13.05
2022-10-21T08:33:08.387Z,13.09
2022-10-21T08:34:08.631Z,13.08
2022-10-21T08:35:08.908Z,13.01
2022-10-21T08:36:09.157Z,12.94
2022-10-21T08:37:09.428Z,12.84
2022-10-21T08:38:09.833Z,12.80
2022-10-21T08:39:09.972Z,12.76
2022-10-21T08:40:10.234Z,12.72
2022-10-21T08:41:10.493Z,12.66
2022-10-21T08:42:10.769Z,12.68
2022-10-21T08:43:11.047Z,12.70
2022-10-21T08:44:11.292Z,12.84
2022-10-21T08:45:11.557Z,12.83
2022-10-21T08:46:11.818Z,12.98
2022-10-21T08:47:12.068Z,13.11
2022-10-21T08:48:12.336Z,13.12
2022-10-21T08:49:12.588Z,13.17
2022-10-21T08:50:12.855Z,13.16
2022-10-21T08:51:13.086Z,13.21
2022-10-21T08:52:13.336Z,13.31
2022-10-21T08:53:13.615Z,13.40
2022-10-21T08:54:13.876Z,13.39
2022-10-21T08:55:14.124Z,13.27
2022-10-21T08:56:19.357Z,13.24
2022-10-21T08:57:15.621Z,13.20
2022-10-21T08:58:16.228Z,13.26
2022-10-21T08:59:15.106Z,13.36
2022-10-21T09:00:15.345Z,13.33
2022-10-21T09:01:15.598Z,13.28
2022-10-21T09:02:15.845Z,13.13
2022-10-21T09:03:16.131Z,13.21
2022-10-21T09:04:16.361Z,13.19
2022-10-21T09:05:16.656Z,13.27
2022-10-21T09:06:16.907Z,13.42
2022-10-21T09:07:18.108Z,13.42
2022-10-21T09:08:17.483Z,13.43
2022-10-21T09:09:17.833Z,13.61
2022-10-21T09:10:18.029Z,13.71
2022-10-21T09:11:18.251Z,13.82
2022-10-21T09:12:18.506Z,13.83
2022-10-21T09:13:18.768Z,13.76
2022-10-21T09:14:19.044Z,13.78
2022-10-21T09:15:20.162Z,13.73
2022-10-21T09:16:19.581Z,13.82
2022-10-21T09:17:19.845Z,14.01
2022-10-21T09:18:20.131Z,14.67
2022-10-21T09:19:20.394Z,15.22
2022-10-21T09:20:20.637Z,15.76
2022-10-21T09:21:20.896Z,15.99
2022-10-21T09:22:34.661Z,16.51
2022-10-21T09:23:22.440Z,17.02
2022-10-21T09:24:21.551Z,17.60
2022-10-21T09:25:21.784Z,17.75
2022-10-21T09:26:25.332Z,18.12
2022-10-21T09:27:32.120Z,18.26
2022-10-21T09:28:23.381Z,18.49
2022-10-21T09:29:22.595Z,18.73
2022-10-21T09:30:22.810Z,18.34
2022-10-21T09:31:23.035Z,17.97
2022-10-21T09:32:23.856Z,17.97
2022-10-21T09:33:23.445Z,18.05
2022-10-21T09:34:23.649Z,17.86
2022-10-21T09:35:23.840Z,18.08
2022-10-21T09:36:24.051Z,18.03
2022-10-21T09:37:24.290Z,18.49
2022-10-21T09:38:24.527Z,18.61
2022-10-21T09:39:24.756Z,17.98
2022-10-21T09:40:27.921Z,17.13
2022-10-21T09:41:25.099Z,16.46
2022-10-21T09:42:48.054Z,16.00
2022-10-21T09:43:27.543Z,15.65
2022-10-21T09:44:25.615Z,15.26
2022-10-21T09:45:25.968Z,15.04
2022-10-21T09:46:26.074Z,15.07
2022-10-21T09:47:26.336Z,15.32
2022-10-21T09:48:26.501Z,15.45
2022-10-21T09:50:01.638Z,15.41
2022-10-21T09:50:27.923Z,15.39
2022-10-21T09:51:27.120Z,15.44
2022-10-21T09:52:27.338Z,15.50
2022-10-21T09:53:27.601Z,15.55
2022-10-21T09:54:27.814Z,15.73
2022-10-21T09:55:28.040Z,16.25
2022-10-21T09:56:28.258Z,16.28
2022-10-21T09:57:29.492Z,15.98
2022-10-21T09:58:28.732Z,15.81
2022-10-21T09:59:32.899Z,15.80
2022-10-21T10:00:29.187Z,15.72
2022-10-21T10:01:29.394Z,15.90
2022-10-21T10:02:29.667Z,15.69
2022-10-21T10:03:29.911Z,15.59
2022-10-21T10:04:30.138Z,15.41
2022-10-21T10:05:30.416Z,15.63
2022-10-21T10:06:30.649Z,15.84
2022-10-21T10:07:30.884Z,16.22
2022-10-21T10:08:31.148Z,16.10
2022-10-21T10:09:31.342Z,15.92
2022-10-21T10:10:32.561Z,16.68
2022-10-21T10:11:31.799Z,17.60
2022-10-21T10:12:32.022Z,17.75
2022-10-21T10:13:32.259Z,17.56
2022-10-21T10:14:32.458Z,17.30
2022-10-21T10:15:32.708Z,17.22
2022-10-21T10:16:32.944Z,17.13
2022-10-21T10:17:33.141Z,16.94
2022-10-21T10:18:33.394Z,16.77
2022-10-21T10:19:33.637Z,16.50
2022-10-21T10:20:33.834Z,16.55
2022-10-21T10:21:34.085Z,16.83
2022-10-21T10:22:34.258Z,17.32
2022-10-21T10:23:34.468Z,17.78
2022-10-21T10:24:34.667Z,17.76
2022-10-21T10:25:34.877Z,17.71
2022-10-21T10:26:35.091Z,17.66
2022-10-21T10:27:35.324Z,17.82
2022-10-21T10:28:35.664Z,17.93
2022-10-21T10:29:35.828Z,17.35
2022-10-21T10:30:35.916Z,16.74
2022-10-21T10:31:36.251Z,16.37
2022-10-21T10:32:36.688Z,16.37
2022-10-21T10:33:36.555Z,16.51
2022-10-21T10:34:36.763Z,16.43
2022-10-21T10:35:36.976Z,16.47
2022-10-21T10:36:37.231Z,16.39
2022-10-21T10:37:37.468Z,16.47
2022-10-21T10:38:37.713Z,16.89
2022-10-21T10:39:37.931Z,17.23
2022-10-21T10:40:38.146Z,17.52
2022-10-21T10:41:38.380Z,17.90
2022-10-21T10:42:38.892Z,18.12
2022-10-21T10:43:38.827Z,18.13
2022-10-21T10:44:39.027Z,18.03
2022-10-21T10:45:39.251Z,17.86
2022-10-21T10:46:39.518Z,17.82
2022-10-21T10:47:40.061Z,18.24
2022-10-21T10:48:39.996Z,18.48
2022-10-21T10:49:40.081Z,18.43
2022-10-21T10:50:40.287Z,18.19
2022-10-21T10:51:40.476Z,18.00
2022-10-21T10:52:40.668Z,17.76
2022-10-21T10:53:40.902Z,18.00
2022-10-21T10:54:41.105Z,17.97
2022-10-21T10:55:41.357Z,17.72
2022-10-21T10:56:41.555Z,17.78
2022-10-21T10:57:44.542Z,17.88
2022-10-21T10:58:41.987Z,18.08
2022-10-21T10:59:42.203Z,18.37
2022-10-21T11:00:42.485Z,18.70
2022-10-21T11:01:42.560Z,19.17
2022-10-21T11:02:42.797Z,19.78
2022-10-21T11:03:42.943Z,20.32
2022-10-21T11:04:43.191Z,20.52
2022-10-21T11:05:43.342Z,20.73
2022-10-21T11:06:43.539Z,20.71
2022-10-21T11:07:43.727Z,20.78
2022-10-21T11:08:44.152Z,20.75
2022-10-21T11:09:44.109Z,20.78
2022-10-21T11:10:44.294Z,20.85
2022-10-21T11:11:44.488Z,20.80
2022-10-21T11:12:44.675Z,19.90
2022-10-21T11:13:45.996Z,19.19
2022-10-21T11:14:45.047Z,18.89
2022-10-21T11:15:46.233Z,18.42
2022-10-21T11:16:59.711Z,18.08
2022-10-21T11:17:46.816Z,17.87
2022-10-21T11:18:49.429Z,17.56
2022-10-21T11:19:45.975Z,17.16
2022-10-21T11:20:46.198Z,16.98
2022-10-21T11:21:47.445Z,16.92
2022-10-21T11:22:46.649Z,16.92
2022-10-21T11:23:46.968Z,17.22
2022-10-21T11:24:47.169Z,17.24
2022-10-21T11:25:47.323Z,17.19
2022-10-21T11:26:47.547Z,17.09
2022-10-21T11:27:47.756Z,16.95
2022-10-21T11:28:48.026Z,17.14
2022-10-21T11:29:48.229Z,17.38
2022-10-21T11:30:48.447Z,17.54
2022-10-21T11:32:10.277Z,17.57
2022-10-21T11:32:49.958Z,17.65
2022-10-21T11:33:49.682Z,17.87
2022-10-21T11:34:49.220Z,17.66
2022-10-21T11:35:52.091Z,17.52
2022-10-21T11:36:49.628Z,17.54
2022-10-21T11:37:49.851Z,17.69
2022-10-21T11:38:50.092Z,17.50
2022-10-21T11:39:50.301Z,17.30
2022-10-21T11:40:50.520Z,17.20
2022-10-21T11:41:50.747Z,17.13
2022-10-21T11:42:50.969Z,17.13
2022-10-21T11:43:51.219Z,17.20
2022-10-21T11:44:52.462Z,17.23
2022-10-21T11:45:51.673Z,17.30
2022-10-21T11:46:51.910Z,17.28
2022-10-21T11:47:52.168Z,17.27
2022-10-21T11:48:52.440Z,17.42
2022-10-21T11:49:52.739Z,17.47
2022-10-21T11:50:52.856Z,17.35
2022-10-21T11:51:53.080Z,17.12
2022-10-21T11:52:53.314Z,17.10
2022-10-21T11:53:53.558Z,17.09
2022-10-21T11:55:08.893Z,17.04
2022-10-21T11:55:54.944Z,17.12
2022-10-21T11:56:54.157Z,17.17
2022-10-21T11:57:54.379Z,17.23
2022-10-21T11:58:54.626Z,17.30
2022-10-21T11:59:56.640Z,17.31
2022-10-21T12:00:55.015Z,17.24
2022-10-21T12:01:55.290Z,17.20
2022-10-21T12:02:55.620Z,17.19
2022-10-21T12:03:55.755Z,17.17
2022-10-21T12:04:55.977Z,17.23
2022-10-21T12:05:56.214Z,17.22
2022-10-21T12:06:56.460Z,17.34
2022-10-21T12:07:56.706Z,17.30
2022-10-21T12:08:56.918Z,17.19
2022-10-21T12:09:57.156Z,17.14
2022-10-21T12:11:04.439Z,17.22
2022-10-21T12:11:57.616Z,17.17
2022-10-21T12:12:57.844Z,17.31
2022-10-21T12:13:58.084Z,17.38
2022-10-21T12:14:58.303Z,17.35
2022-10-21T12:15:58.554Z,17.24
2022-10-21T12:16:58.786Z,17.22
2022-10-21T12:17:59.008Z,17.22
2022-10-21T12:18:59.251Z,17.19
2022-10-21T12:19:59.480Z,17.14
2022-10-21T12:20:59.707Z,17.12
2022-10-21T12:21:59.917Z,17.12
2022-10-21T12:23:00.152Z,16.98
2022-10-21T12:24:00.373Z,17.01
2022-10-21T12:25:00.591Z,16.99
2022-10-21T12:26:00.851Z,16.82
2022-10-21T12:27:01.083Z,16.74
2022-10-21T12:28:01.308Z,16.73
2022-10-21T12:29:01.554Z,16.66
2022-10-21T12:30:01.787Z,16.65
2022-10-21T12:31:02.044Z,16.64
2022-10-21T12:32:02.293Z,16.66
2022-10-21T12:33:02.524Z,16.74
2022-10-21T12:34:02.768Z,16.76
2022-10-21T12:35:03.015Z,16.69
2022-10-21T12:36:03.234Z,16.66
2022-10-21T12:37:03.455Z,16.59
2022-10-21T12:38:03.695Z,16.61
2022-10-21T12:39:03.937Z,16.66
2022-10-21T12:40:04.173Z,16.69
2022-10-21T12:41:04.409Z,16.73
2022-10-21T12:42:04.642Z,16.77
2022-10-21T12:43:04.873Z,16.77
2022-10-21T12:44:05.139Z,16.82
2022-10-21T12:45:05.435Z,16.89
2022-10-21T12:46:05.552Z,16.89
2022-10-21T12:47:05.795Z,16.87
2022-10-21T12:48:06.024Z,16.87
2022-10-21T12:49:06.269Z,16.84
2022-10-21T12:50:06.572Z,16.82
2022-10-21T12:51:06.723Z,16.84
2022-10-21T12:52:06.953Z,16.80
2022-10-21T12:53:07.194Z,16.80
2022-10-21T12:54:07.445Z,16.69
2022-10-21T12:55:07.693Z,16.69
2022-10-21T12:56:07.933Z,16.68
2022-10-21T12:57:08.162Z,16.69
2022-10-21T12:58:08.390Z,16.73
2022-10-21T12:59:08.741Z,16.80
2022-10-21T13:00:08.874Z,16.82
2022-10-21T13:01:09.139Z,16.86
2022-10-21T13:02:09.403Z,16.84
2022-10-21T13:03:09.630Z,16.83
2022-10-21T13:04:09.871Z,16.83
2022-10-21T13:05:10.101Z,16.82
2022-10-21T13:06:10.382Z,16.80
2022-10-21T13:07:10.613Z,16.74
2022-10-21T13:08:10.836Z,16.72
2022-10-21T13:09:11.129Z,16.69
2022-10-21T13:10:11.341Z,16.62
2022-10-21T13:11:11.581Z,16.57